createdAt,value
2022-12-03T00:02:03.046Z,150746.31
2022-12-03T00:04:33.339Z,150759.22
2022-12-03T00:07:03.588Z,150774.63
2022-12-03T00:09:37.077Z,150782.38
2022-12-03T00:12:07.477Z,150759.22
2022-12-03T00:14:41.390Z,150747.66
2022-12-03T00:17:14.787Z,150764.34
2022-12-03T00:19:44.843Z,150757.94
2022-12-03T00:22:15.465Z,150761.75
2022-12-03T00:24:48.187Z,150757.94
2022-12-03T00:27:20.200Z,150763.06
2022-12-03T00:29:50.369Z,150769.50
2022-12-03T00:32:20.425Z,150766.94
2022-12-03T00:34:50.661Z,150763.06
2022-12-03T00:37:21.344Z,150769.50
2022-12-03T00:39:55.351Z,150764.34
2022-12-03T00:42:25.642Z,150759.22
2022-12-03T00:44:56.119Z,150759.22
2022-12-03T00:47:26.386Z,150764.34
2022-12-03T00:49:56.896Z,150781.06
2022-12-03T00:52:27.290Z,150773.38
2022-12-03T00:54:59.944Z,150766.94
2022-12-03T00:57:31.287Z,150757.94
2022-12-03T01:00:01.354Z,150760.47
2022-12-03T01:02:31.435Z,150759.22
2022-12-03T01:05:01.719Z,150760.47
2022-12-03T01:07:32.024Z,150769.50
2022-12-03T01:10:04.818Z,150757.94
2022-12-03T01:12:35.020Z,150765.63
2022-12-03T01:15:05.207Z,150769.50
2022-12-03T01:17:35.435Z,150764.34
2022-12-03T01:20:05.911Z,150773.38
2022-12-03T01:22:35.961Z,150779.78
2022-12-03T01:25:09.832Z,150786.19
2022-12-03T01:27:40.064Z,150782.38
2022-12-03T01:30:12.231Z,150786.19
2022-12-03T01:32:39.645Z,150795.19
2022-12-03T01:35:10.209Z,150782.38
2022-12-03T01:37:40.918Z,150793.94
2022-12-03T01:40:18.858Z,150804.22
2022-12-03T01:42:48.963Z,150804.22
2022-12-03T01:45:26.427Z,150797.81
2022-12-03T01:47:56.495Z,150808.09
2022-12-03T01:50:33.397Z,150806.81
2022-12-03T01:53:06.628Z,150793.94
2022-12-03T01:55:40.223Z,150799.06
2022-12-03T01:58:13.630Z,150791.34
2022-12-03T02:00:44.346Z,150787.50
2022-12-03T02:03:18.483Z,150790.06
2022-12-03T02:05:48.706Z,150811.94
2022-12-03T02:08:32.882Z,150796.53
2022-12-03T02:11:07.414Z,150787.50
2022-12-03T02:13:37.232Z,150788.78
2022-12-03T02:16:08.036Z,150797.81
2022-12-03T02:18:38.236Z,150784.91
2022-12-03T02:21:16.565Z,150805.50
2022-12-03T02:23:53.081Z,150772.09
2022-12-03T02:26:26.333Z,150781.06
2022-12-03T02:28:56.460Z,150782.38
2022-12-03T02:31:27.148Z,150770.75
2022-12-03T02:33:57.575Z,150761.75
2022-12-03T02:36:27.819Z,150750.19
2022-12-03T02:38:59.261Z,150739.91
2022-12-03T02:41:44.853Z,150728.34
2022-12-03T02:44:15.431Z,150720.63
2022-12-03T02:46:45.982Z,150746.31
2022-12-03T02:49:16.576Z,150724.50
2022-12-03T02:51:46.679Z,150730.91
2022-12-03T02:54:16.953Z,150727.03
2022-12-03T02:56:49.584Z,150728.34
2022-12-03T02:59:20.211Z,150733.50
2022-12-03T03:01:50.755Z,150702.59
2022-12-03T03:04:22.668Z,150727.03
2022-12-03T03:06:52.831Z,150732.19
2022-12-03T03:09:23.770Z,150732.19
2022-12-03T03:11:57.162Z,150721.91
2022-12-03T03:14:27.300Z,150741.19
2022-12-03T03:16:58.542Z,150718.06
2022-12-03T03:19:29.632Z,150716.75
2022-12-03T03:22:00.324Z,150711.63
2022-12-03T03:24:30.780Z,150725.75
2022-12-03T03:27:03.743Z,150712.94
2022-12-03T03:29:35.166Z,150701.34
2022-12-03T03:32:06.116Z,150712.94
2022-12-03T03:34:37.507Z,150696.19
2022-12-03T03:37:07.690Z,150705.19
2022-12-03T03:39:37.911Z,150707.75
2022-12-03T03:42:10.779Z,150698.78
2022-12-03T03:44:41.227Z,150711.63
2022-12-03T03:47:11.393Z,150711.63
2022-12-03T03:49:41.770Z,150706.47
2022-12-03T03:52:13.506Z,150710.34
2022-12-03T03:54:43.806Z,150705.19
2022-12-03T03:57:16.636Z,150712.94
2022-12-03T03:59:47.533Z,150732.19
2022-12-03T04:02:22.776Z,150684.63
2022-12-03T04:04:53.652Z,150709.06
2022-12-03T04:07:23.850Z,150707.75
2022-12-03T04:09:53.892Z,150706.47
2022-12-03T04:12:53.788Z,150684.63
2022-12-03T04:15:24.766Z,150675.63
2022-12-03T04:18:07.318Z,150680.78
2022-12-03T04:20:37.764Z,150688.50
2022-12-03T04:23:05.492Z,150698.78
2022-12-03T04:25:47.990Z,150697.47
2022-12-03T04:28:33.349Z,150679.50
2022-12-03T04:31:24.249Z,150682.03
2022-12-03T04:34:07.056Z,150696.19
2022-12-03T04:36:37.260Z,150702.59
2022-12-03T04:39:07.633Z,150707.75
2022-12-03T04:41:37.968Z,150715.47
2022-12-03T04:44:23.223Z,150716.75
2022-12-03T04:46:53.738Z,150725.75
2022-12-03T04:49:24.142Z,150705.19
2022-12-03T04:51:54.332Z,150725.75
2022-12-03T04:54:26.099Z,150725.75
2022-12-03T04:56:56.648Z,150738.66
2022-12-03T04:59:29.490Z,150737.31
2022-12-03T05:02:01.723Z,150716.75
2022-12-03T05:04:32.442Z,150712.94
2022-12-03T05:07:02.518Z,150718.06
2022-12-03T05:09:32.786Z,150720.63
2022-12-03T05:12:03.979Z,150734.78
2022-12-03T05:14:36.923Z,150734.78
2022-12-03T05:17:07.252Z,150725.75
2022-12-03T05:19:49.635Z,150720.63
2022-12-03T05:22:19.857Z,150720.63
2022-12-03T05:24:50.034Z,150738.66
2022-12-03T05:27:23.981Z,150743.78
2022-12-03T05:29:57.171Z,150725.75
2022-12-03T05:32:27.707Z,150738.66
2022-12-03T05:34:57.956Z,150737.31
2022-12-03T05:37:28.022Z,150757.94
2022-12-03T05:39:58.302Z,150743.78
2022-12-03T05:42:40.709Z,150746.31
2022-12-03T05:45:15.026Z,150750.19
2022-12-03T05:47:45.246Z,150763.06
2022-12-03T05:50:15.923Z,150747.66
2022-12-03T05:52:46.078Z,150754.06
2022-12-03T05:55:21.405Z,150754.06
2022-12-03T05:57:53.247Z,150760.47
2022-12-03T06:00:29.208Z,150737.31
2022-12-03T06:03:00.152Z,150745.06
2022-12-03T06:05:30.721Z,150734.78
2022-12-03T06:08:00.909Z,150727.03
2022-12-03T06:10:32.702Z,150743.78
2022-12-03T06:13:06.061Z,150745.06
2022-12-03T06:15:43.989Z,150738.66
2022-12-03T06:18:14.812Z,150734.78
2022-12-03T06:20:45.004Z,150720.63
2022-12-03T06:23:15.477Z,150725.75
2022-12-03T06:25:45.620Z,150718.06
2022-12-03T06:28:16.002Z,150752.78
2022-12-03T06:30:50.096Z,150748.91
2022-12-03T06:33:20.355Z,150743.78
2022-12-03T06:35:58.655Z,150741.19
2022-12-03T06:38:28.874Z,150738.66
2022-12-03T06:40:59.120Z,150733.50
2022-12-03T06:43:31.085Z,150760.47
2022-12-03T06:46:03.842Z,150751.47
2022-12-03T06:48:34.380Z,150739.91
2022-12-03T06:51:04.667Z,150733.50
2022-12-03T06:53:34.757Z,150748.91
2022-12-03T06:56:04.841Z,150706.47
2022-12-03T06:58:35.074Z,150694.91
2022-12-03T07:01:09.313Z,150698.78
2022-12-03T07:03:39.907Z,150665.34
2022-12-03T07:06:10.186Z,150689.78
2022-12-03T07:08:40.362Z,150707.75
2022-12-03T07:11:30.971Z,150712.94
2022-12-03T07:14:05.451Z,150712.94
2022-12-03T07:16:39.092Z,150714.22
2022-12-03T07:19:09.852Z,150712.94
2022-12-03T07:21:40.095Z,150688.50
2022-12-03T07:24:11.020Z,150698.78
2022-12-03T07:26:41.849Z,150685.91
2022-12-03T07:29:11.846Z,150682.03
2022-12-03T07:31:44.904Z,150682.03
2022-12-03T07:34:15.226Z,150664.06
2022-12-03T07:36:45.513Z,150700.06
2022-12-03T07:39:15.979Z,150711.63
2022-12-03T07:41:46.196Z,150697.47
2022-12-03T07:44:16.371Z,150730.91
2022-12-03T07:46:49.322Z,150736.03
2022-12-03T07:49:19.556Z,150745.06
2022-12-03T07:51:54.391Z,150774.63
2022-12-03T07:54:24.650Z,150774.63
2022-12-03T07:57:00.887Z,150770.75
2022-12-03T07:59:32.337Z,150748.91
2022-12-03T08:02:05.238Z,150747.66
2022-12-03T08:04:35.628Z,150705.19
2022-12-03T08:07:06.281Z,150727.03
2022-12-03T08:09:36.483Z,150738.66
2022-12-03T08:12:17.888Z,150772.09
2022-12-03T08:14:48.402Z,150748.91
2022-12-03T08:17:22.181Z,150769.50
2022-12-03T08:19:52.978Z,150763.06
2022-12-03T08:22:23.316Z,150783.66
2022-12-03T08:24:53.803Z,150810.63
2022-12-03T08:27:25.948Z,150811.94
2022-12-03T08:30:02.668Z,150809.34
2022-12-03T08:32:37.116Z,150802.94
2022-12-03T08:35:14.877Z,150805.50
2022-12-03T08:37:45.851Z,150817.09
2022-12-03T08:40:26.115Z,150811.94
2022-12-03T08:42:57.390Z,150832.53
2022-12-03T08:45:44.965Z,150844.09
2022-12-03T08:48:37.311Z,150838.94
2022-12-03T08:51:16.406Z,150856.97
2022-12-03T08:53:49.976Z,150813.22
2022-12-03T08:56:25.306Z,150838.94
2022-12-03T08:58:57.476Z,150833.78
2022-12-03T09:01:35.950Z,150826.09
2022-12-03T09:04:23.087Z,150844.09
2022-12-03T09:06:53.802Z,150837.66
2022-12-03T09:09:24.990Z,150864.66
2022-12-03T09:11:55.733Z,150872.41
2022-12-03T09:14:26.304Z,150847.94
2022-12-03T09:16:56.875Z,150853.09
2022-12-03T09:19:31.354Z,150873.66
2022-12-03T09:22:02.127Z,150878.81
2022-12-03T09:24:32.523Z,150868.53
2022-12-03T09:27:02.707Z,150874.94
2022-12-03T09:29:32.860Z,150877.53
2022-12-03T09:32:03.401Z,150913.53
2022-12-03T09:34:36.619Z,150901.97
2022-12-03T09:37:06.683Z,150900.72
2022-12-03T09:39:36.894Z,150891.69
2022-12-03T09:42:08.608Z,150882.69
2022-12-03T09:44:40.539Z,150899.38
2022-12-03T09:47:11.649Z,150923.84
2022-12-03T09:49:46.761Z,150911.00
2022-12-03T09:52:24.926Z,150872.41
2022-12-03T09:54:57.098Z,150890.41
2022-12-03T09:57:27.987Z,150904.59
2022-12-03T09:59:58.968Z,150952.16
2022-12-03T10:02:34.462Z,150974.06
2022-12-03T10:05:07.786Z,150956.03
2022-12-03T10:07:38.184Z,150980.47
2022-12-03T10:10:11.143Z,150979.19
2022-12-03T10:12:41.342Z,150957.31
2022-12-03T10:15:16.137Z,150976.59
2022-12-03T10:17:51.274Z,151011.34
2022-12-03T10:20:26.780Z,151003.66
2022-12-03T10:22:56.803Z,151016.50
2022-12-03T10:25:27.122Z,151033.25
2022-12-03T10:28:02.936Z,151024.25
2022-12-03T10:30:38.849Z,151049.97
2022-12-03T10:33:18.999Z,151070.56
2022-12-03T10:35:52.081Z,151039.69
2022-12-03T10:38:26.803Z,151079.56
2022-12-03T10:40:56.897Z,151080.84
2022-12-03T10:43:28.835Z,151091.16
2022-12-03T10:46:15.414Z,151136.25
2022-12-03T10:48:45.506Z,151124.63
2022-12-03T10:51:23.344Z,151109.19
2022-12-03T10:53:54.656Z,151142.66
2022-12-03T10:56:29.031Z,151142.66
2022-12-03T10:59:00.020Z,151178.72
2022-12-03T11:01:30.254Z,151200.63
2022-12-03T11:04:06.337Z,151210.91
2022-12-03T11:06:39.669Z,151205.78
2022-12-03T11:09:19.857Z,151204.44
2022-12-03T11:11:50.964Z,151221.22
2022-12-03T11:15:06.389Z,151221.22
2022-12-03T11:17:51.630Z,151226.38
2022-12-03T11:20:51.779Z,151218.63
2022-12-03T11:23:59.286Z,151203.19
2022-12-03T11:26:59.209Z,151212.19
2022-12-03T11:29:54.003Z,151205.78
2022-12-03T11:33:09.702Z,151210.91
2022-12-03T11:36:04.620Z,151230.25
2022-12-03T11:38:56.270Z,151214.78
2022-12-03T11:41:30.007Z,151209.66
2022-12-03T11:44:31.939Z,151191.59
2022-12-03T11:47:10.789Z,151186.44
2022-12-03T11:49:50.899Z,151168.41
2022-12-03T11:52:36.492Z,151216.06
2022-12-03T11:55:20.961Z,151213.47
2022-12-03T11:57:51.219Z,151257.25
2022-12-03T12:00:25.765Z,151258.53
2022-12-03T12:02:57.540Z,151259.88
2022-12-03T12:05:33.228Z,151279.19
2022-12-03T12:08:05.378Z,151326.81
2022-12-03T12:10:49.815Z,151308.81
2022-12-03T12:13:54.722Z,151293.38
2022-12-03T12:16:46.066Z,151313.97
2022-12-03T12:19:32.552Z,151335.84
2022-12-03T12:22:21.944Z,151328.16
2022-12-03T12:24:54.668Z,151335.84
2022-12-03T12:27:37.965Z,151365.47
2022-12-03T12:30:16.152Z,151362.94
2022-12-03T12:32:50.477Z,151383.53
2022-12-03T12:35:22.518Z,151377.09
2022-12-03T12:38:17.993Z,151364.19
2022-12-03T12:40:50.576Z,151378.38
2022-12-03T12:43:29.953Z,151371.94
2022-12-03T12:46:45.557Z,151374.50
2022-12-03T12:49:03.009Z,151370.63
2022-12-03T12:51:33.383Z,151402.88
2022-12-03T12:54:05.337Z,151396.38
2022-12-03T12:56:36.399Z,151415.72
2022-12-03T12:59:16.089Z,151435.06
2022-12-03T13:01:47.980Z,151450.50
2022-12-03T13:04:20.932Z,151464.69
2022-12-03T13:06:52.679Z,151441.53
2022-12-03T13:09:25.359Z,151435.06
2022-12-03T13:11:57.219Z,151405.41
2022-12-03T13:14:34.497Z,151410.56
2022-12-03T13:17:14.052Z,151409.28
2022-12-03T13:19:49.414Z,151423.47
2022-12-03T13:22:25.884Z,151386.09
2022-12-03T13:24:59.502Z,151366.75
2022-12-03T13:27:32.537Z,151386.09
2022-12-03T13:30:12.221Z,151370.63
2022-12-03T13:32:45.436Z,151364.19
2022-12-03T13:35:18.899Z,151357.78
2022-12-03T13:37:49.078Z,151364.19
2022-12-03T13:40:30.733Z,151359.06
2022-12-03T13:43:00.845Z,151366.75
2022-12-03T13:45:40.720Z,151371.94
2022-12-03T13:48:22.289Z,151361.59
2022-12-03T13:50:53.843Z,151339.72
2022-12-03T13:53:26.293Z,151343.59
2022-12-03T13:56:01.373Z,151338.44
2022-12-03T13:58:31.775Z,151337.13
2022-12-03T14:01:05.743Z,151323.00
2022-12-03T14:03:36.056Z,151312.66
2022-12-03T14:06:06.716Z,151310.09
2022-12-03T14:08:37.432Z,151311.38
2022-12-03T14:11:08.236Z,151297.19
2022-12-03T14:13:38.556Z,151288.22
2022-12-03T14:16:12.053Z,151284.34
2022-12-03T14:18:42.168Z,151279.19
2022-12-03T14:21:12.240Z,151266.28
2022-12-03T14:23:42.258Z,151254.72
2022-12-03T14:26:12.467Z,151259.88
2022-12-03T14:28:42.675Z,151236.66
2022-12-03T14:31:15.744Z,151230.25
2022-12-03T14:33:46.274Z,151217.34
2022-12-03T14:36:16.620Z,151228.91
2022-12-03T14:38:46.686Z,151203.19
2022-12-03T14:41:29.123Z,151191.59
2022-12-03T14:43:59.182Z,151176.16
2022-12-03T14:46:32.195Z,151176.16
2022-12-03T14:49:02.472Z,151152.97
2022-12-03T14:51:34.544Z,151162.00
2022-12-03T14:54:04.929Z,151150.41
2022-12-03T14:56:35.149Z,151124.63
2022-12-03T14:59:05.209Z,151109.19
2022-12-03T15:01:38.521Z,151095.00
2022-12-03T15:04:09.297Z,151084.72
2022-12-03T15:06:39.536Z,151065.41
2022-12-03T15:09:10.048Z,151048.69
2022-12-03T15:11:45.767Z,151037.09
2022-12-03T15:14:16.336Z,151019.09
2022-12-03T15:16:49.378Z,151011.34
2022-12-03T15:19:20.067Z,151006.19
2022-12-03T15:21:51.432Z,150995.91
2022-12-03T15:24:21.869Z,150980.47
2022-12-03T15:26:52.452Z,150979.19
2022-12-03T15:29:23.127Z,150970.19
2022-12-03T15:31:59.435Z,150958.63
2022-12-03T15:34:29.685Z,150944.47
2022-12-03T15:37:00.036Z,150928.97
2022-12-03T15:39:30.095Z,150941.88
2022-12-03T15:42:00.106Z,150926.44
2022-12-03T15:44:30.604Z,150920.00
2022-12-03T15:47:03.776Z,150938.00
2022-12-03T15:49:33.845Z,150922.56
2022-12-03T15:52:04.769Z,150932.84
2022-12-03T15:54:35.010Z,150931.56
2022-12-03T15:57:05.254Z,150926.44
2022-12-03T15:59:35.497Z,150918.69
2022-12-03T16:02:08.433Z,150908.41
2022-12-03T16:04:38.751Z,150911.00
2022-12-03T16:07:09.669Z,150936.72
2022-12-03T16:09:39.876Z,150970.19
2022-12-03T16:12:10.226Z,150974.06
2022-12-03T16:14:41.614Z,151017.81
2022-12-03T16:17:14.723Z,151006.19
2022-12-03T16:19:48.007Z,151012.66
2022-12-03T16:22:20.126Z,151016.50
2022-12-03T16:24:50.180Z,151037.09
2022-12-03T16:27:25.330Z,151019.09
2022-12-03T16:29:57.195Z,151025.50
2022-12-03T16:32:32.935Z,151025.50
2022-12-03T16:35:04.779Z,151021.66
2022-12-03T16:37:35.304Z,151016.50
2022-12-03T16:40:05.682Z,151006.19
2022-12-03T16:42:37.360Z,151003.66
2022-12-03T16:45:34.391Z,150994.63
2022-12-03T16:48:07.841Z,150986.91
2022-12-03T16:50:38.436Z,150983.03
2022-12-03T16:53:08.707Z,151002.34
2022-12-03T16:55:38.909Z,150990.78
2022-12-03T16:58:09.752Z,150983.03
2022-12-03T17:00:43.358Z,150995.91
2022-12-03T17:03:18.011Z,151021.66
2022-12-03T17:05:48.624Z,151031.94
2022-12-03T17:08:20.018Z,151053.84
2022-12-03T17:10:50.430Z,151046.09
2022-12-03T17:13:21.295Z,151047.41
2022-12-03T17:15:54.450Z,151052.56
2022-12-03T17:18:27.524Z,151043.56
2022-12-03T17:20:57.832Z,151047.41
2022-12-03T17:23:27.974Z,151053.84
2022-12-03T17:25:58.447Z,151038.41
2022-12-03T17:28:33.453Z,151043.56
2022-12-03T17:31:06.823Z,151042.28
2022-12-03T17:33:43.454Z,151034.53
2022-12-03T17:36:13.963Z,151034.53
2022-12-03T17:38:44.104Z,151042.28
2022-12-03T17:41:14.196Z,151037.09
2022-12-03T17:43:44.755Z,151022.97
2022-12-03T17:46:15.400Z,151016.50
2022-12-03T17:48:48.203Z,151008.81
2022-12-03T17:51:19.520Z,150993.38
2022-12-03T17:53:49.602Z,150984.34
2022-12-03T17:56:20.288Z,150981.75
2022-12-03T17:58:50.350Z,150975.34
2022-12-03T18:01:20.825Z,150975.34
2022-12-03T18:03:54.650Z,150976.59
2022-12-03T18:06:26.468Z,150965.03
2022-12-03T18:08:59.749Z,150945.72
2022-12-03T18:11:30.138Z,150925.16
2022-12-03T18:14:01.504Z,150914.88
2022-12-03T18:16:35.052Z,150903.25
2022-12-03T18:19:08.236Z,150903.25
2022-12-03T18:21:49.866Z,150891.69
2022-12-03T18:24:21.497Z,150883.97
2022-12-03T18:26:54.350Z,150869.78
2022-12-03T18:29:24.426Z,150864.66
2022-12-03T18:31:54.921Z,150851.81
2022-12-03T18:34:27.952Z,150849.22
2022-12-03T18:36:58.087Z,150845.34
2022-12-03T18:39:30.857Z,150860.84
2022-12-03T18:42:00.994Z,150844.09
2022-12-03T18:44:31.384Z,150829.94
2022-12-03T18:47:02.768Z,150823.50
2022-12-03T18:49:36.967Z,150824.78
2022-12-03T18:52:08.401Z,150829.94
2022-12-03T18:54:38.670Z,150827.38
2022-12-03T18:57:09.005Z,150828.66
2022-12-03T18:59:40.905Z,150829.94
2022-12-03T19:02:32.456Z,150832.53
2022-12-03T19:05:10.562Z,150833.78
2022-12-03T19:07:40.914Z,150832.53
2022-12-03T19:10:12.503Z,150841.53
2022-12-03T19:12:42.614Z,150855.69
2022-12-03T19:15:13.408Z,150856.97
2022-12-03T19:17:47.206Z,150860.84
2022-12-03T19:20:20.322Z,150862.09
2022-12-03T19:22:53.207Z,150877.53
2022-12-03T19:25:23.865Z,150885.28
2022-12-03T19:27:57.857Z,150880.13
2022-12-03T19:30:29.614Z,150885.28
2022-12-03T19:33:06.709Z,150894.25
2022-12-03T19:35:42.350Z,150881.41
2022-12-03T19:38:12.420Z,150883.97
2022-12-03T19:40:42.451Z,150876.25
2022-12-03T19:43:12.856Z,150872.41
2022-12-03T19:45:45.843Z,150858.25
2022-12-03T19:48:17.505Z,150855.69
2022-12-03T19:51:07.872Z,150850.53
2022-12-03T19:53:45.536Z,150851.81
2022-12-03T19:56:17.750Z,150853.09
2022-12-03T19:58:49.293Z,150856.97
2022-12-03T20:01:23.585Z,150859.50
2022-12-03T20:03:55.788Z,150859.50
2022-12-03T20:06:30.984Z,150851.81
2022-12-03T20:09:02.779Z,150841.53
2022-12-03T20:11:39.500Z,150842.81
2022-12-03T20:14:11.796Z,150851.81
2022-12-03T20:16:42.188Z,150869.78
2022-12-03T20:19:14.940Z,150886.56
2022-12-03T20:21:52.399Z,150877.53
2022-12-03T20:24:23.499Z,150889.09
2022-12-03T20:26:56.553Z,150905.84
2022-12-03T20:29:29.688Z,150892.97
2022-12-03T20:32:04.232Z,150898.13
2022-12-03T20:34:35.985Z,150901.97
2022-12-03T20:37:10.274Z,150903.25
2022-12-03T20:39:40.417Z,150895.56
2022-12-03T20:42:12.014Z,150885.28
2022-12-03T20:44:42.055Z,150881.41
2022-12-03T20:47:12.221Z,150864.66
2022-12-03T20:49:42.383Z,150855.69
2022-12-03T20:52:15.781Z,150851.81
2022-12-03T20:54:46.193Z,150833.78
2022-12-03T20:57:19.835Z,150836.41
2022-12-03T20:59:50.171Z,150823.50
2022-12-03T21:02:20.808Z,150837.66
2022-12-03T21:04:51.158Z,150833.78
2022-12-03T21:07:26.932Z,150828.66
2022-12-03T21:09:57.438Z,150824.78
2022-12-03T21:12:27.877Z,150823.50
2022-12-03T21:14:58.094Z,150810.63
2022-12-03T21:17:28.649Z,150819.63
2022-12-03T21:20:00.028Z,150808.09
2022-12-03T21:22:32.775Z,150793.94
2022-12-03T21:25:03.497Z,150796.53
2022-12-03T21:27:34.100Z,150786.19
2022-12-03T21:30:04.232Z,150799.06
2022-12-03T21:32:34.521Z,150795.19
2022-12-03T21:35:04.780Z,150788.78
2022-12-03T21:37:37.722Z,150788.78
2022-12-03T21:40:09.674Z,150783.66
2022-12-03T21:42:39.925Z,150777.22
2022-12-03T21:45:11.638Z,150777.22
2022-12-03T21:47:42.421Z,150772.09
2022-12-03T21:50:14.225Z,150778.50
2022-12-03T21:52:47.070Z,150777.22
2022-12-03T21:55:17.117Z,150775.91
2022-12-03T21:57:47.388Z,150777.22
2022-12-03T22:00:18.873Z,150773.38
2022-12-03T22:02:49.190Z,150772.09
2022-12-03T22:05:20.137Z,150766.94
2022-12-03T22:07:53.247Z,150763.06
2022-12-03T22:10:23.824Z,150761.75
2022-12-03T22:12:54.080Z,150766.94
2022-12-03T22:15:24.903Z,150766.94
2022-12-03T22:17:55.820Z,150766.94
2022-12-03T22:20:26.054Z,150772.09
2022-12-03T22:22:59.669Z,150782.38
2022-12-03T22:25:30.954Z,150759.22
2022-12-03T22:28:01.301Z,150769.50
2022-12-03T22:30:37.391Z,150761.75
2022-12-03T22:33:08.572Z,150756.63
2022-12-03T22:35:39.407Z,150759.22
2022-12-03T22:38:15.114Z,150760.47
2022-12-03T22:40:47.208Z,150745.06
2022-12-03T22:43:17.340Z,150743.78
2022-12-03T22:45:48.057Z,150739.91
2022-12-03T22:48:18.932Z,150746.31
2022-12-03T22:50:50.300Z,150761.75
2022-12-03T22:53:23.367Z,150755.34
2022-12-03T22:55:58.838Z,150768.22
2022-12-03T22:58:31.509Z,150754.06
2022-12-03T23:01:03.046Z,150772.09
2022-12-03T23:03:34.224Z,150779.78
2022-12-03T23:06:04.332Z,150766.94
2022-12-03T23:08:37.136Z,150760.47
2022-12-03T23:11:07.355Z,150757.94
2022-12-03T23:13:37.873Z,150739.91
2022-12-03T23:16:09.187Z,150748.91
2022-12-03T23:18:39.540Z,150754.06
2022-12-03T23:21:10.167Z,150751.47
2022-12-03T23:23:43.571Z,150761.75
2022-12-03T23:26:17.373Z,150759.22
2022-12-03T23:28:49.136Z,150763.06
2022-12-03T23:31:22.175Z,150779.78
2022-12-03T23:33:53.817Z,150773.38
2022-12-03T23:36:25.484Z,150766.94
2022-12-03T23:39:10.596Z,150778.50
2022-12-03T23:41:40.743Z,150773.38
2022-12-03T23:44:10.908Z,150786.19
2022-12-03T23:46:43.021Z,150766.94
2022-12-03T23:49:13.441Z,150770.75
2022-12-03T23:51:43.780Z,150754.06
2022-12-03T23:54:16.789Z,150779.78
2022-12-03T23:56:46.950Z,150766.94
2022-12-03T23:59:17.144Z,150754.06
